Time;durP1;ratioP1;P1;durP2;ratioP2;P2;SDS_P1;SDS_P2;PMS_P1;PMS_P2;Temp;Humidity;BMP_temperature;BMP_pressure;BME280_temperature;BME280_humidity;BME280_pressure;Samples;Min_cycle;Max_cycle;Signal;HPM_P1;HPM_P2
2021/01/05 00:01:32;;;;;;;20.77;12.38;;;230.40;2252.80;;;;;;5110917;28;20016;-54
2021/01/05 00:03:57;;;;;;;19.15;11.57;;;230.40;2252.80;;;;;;5112078;28;20047;-54
2021/01/05 00:06:23;;;;;;;18.33;12.38;;;230.40;2252.80;;;;;;5111346;28;20035;-53
2021/01/05 00:08:49;;;;;;;18.77;10.90;;;230.50;2252.80;;;;;;5111862;28;20477;-56
2021/01/05 00:11:14;;;;;;;14.98;9.52;;;230.50;2252.80;;;;;;5112936;28;20020;-54
2021/01/05 00:13:40;;;;;;;18.58;11.25;;;230.50;2252.80;;;;;;5112523;28;20024;-54
2021/01/05 00:16:06;;;;;;;17.63;10.20;;;205.60;2252.80;;;;;;5111874;28;20076;-54
2021/01/05 00:18:32;;;;;;;15.95;10.07;;;205.60;2252.80;;;;;;5111867;28;20012;-54
2021/01/05 00:20:57;;;;;;;16.50;9.15;;;205.50;2252.80;;;;;;5108133;28;20500;-53
2021/01/05 00:23:23;;;;;;;14.75;8.40;;;205.50;2252.80;;;;;;5110513;28;20020;-54
2021/01/05 00:25:49;;;;;;;14.63;9.43;;;205.50;2252.80;;;;;;5109646;28;20393;-54
2021/01/05 00:28:15;;;;;;;15.35;10.32;;;205.60;2252.80;;;;;;5105493;28;20032;-53
2021/01/05 00:30:40;;;;;;;15.68;9.88;;;205.50;2252.80;;;;;;5107431;28;20020;-55
2021/01/05 00:33:07;;;;;;;15.13;9.93;;;205.60;2252.80;;;;;;5110270;28;20050;-54
2021/01/05 00:35:35;;;;;;;13.80;9.88;;;205.70;2252.80;;;;;;5109398;28;20035;-53
2021/01/05 00:38:04;;;;;;;15.32;9.50;;;205.60;2252.80;;;;;;5109496;28;20389;-54
2021/01/05 00:40:30;;;;;;;14.95;9.63;;;205.70;2252.80;;;;;;5112270;28;20519;-57
2021/01/05 00:42:56;;;;;;;14.07;8.88;;;230.40;2252.80;;;;;;5111957;28;20385;-57
2021/01/05 00:45:31;;;;;;;16.38;10.45;;;205.70;2252.80;;;;;;5111543;28;20024;-54
2021/01/05 00:47:57;;;;;;;17.83;9.82;;;205.70;2252.80;;;;;;5112265;28;20092;-58
2021/01/05 00:50:23;;;;;;;12.43;8.98;;;205.70;2252.80;;;;;;5110806;28;20500;-54
2021/01/05 00:52:50;;;;;;;13.55;9.05;;;205.60;2252.80;;;;;;5111426;28;20028;-54
2021/01/05 00:55:16;;;;;;;16.25;9.95;;;205.70;2252.80;;;;;;5109359;28;20028;-54
2021/01/05 00:57:42;;;;;;;14.15;9.35;;;205.50;2252.80;;;;;;5112393;28;20023;-53
2021/01/05 01:00:12;;;;;;;14.07;9.07;;;205.50;2252.80;;;;;;5110788;28;20027;-55
2021/01/05 01:02:37;;;;;;;;;;;205.60;2252.80;;;;;;5112361;28;20373;-54
2021/01/05 01:05:04;;;;;;;13.10;9.43;;;205.70;2252.80;;;;;;5109952;28;19930;-54
2021/01/05 01:07:29;;;;;;;19.17;9.40;;;205.70;2252.80;;;;;;5106133;28;20032;-55
2021/01/05 01:09:55;;;;;;;16.15;8.82;;;205.70;2252.80;;;;;;5104127;28;20035;-54
2021/01/05 01:12:23;;;;;;;13.85;9.20;;;205.70;2252.80;;;;;;5110559;28;20055;-54
2021/01/05 01:14:51;;;;;;;15.20;9.40;;;205.60;2252.80;;;;;;5111397;28;20016;-54
2021/01/05 01:17:17;;;;;;;15.18;9.48;;;205.70;2252.80;;;;;;5110969;28;20024;-53
2021/01/05 01:19:43;;;;;;;11.80;8.45;;;205.70;2252.80;;;;;;5112416;28;20028;-53
2021/01/05 01:22:09;;;;;;;13.43;9.23;;;205.60;2252.80;;;;;;5107947;28;20058;-54
2021/01/05 01:24:35;;;;;;;13.15;9.50;;;205.60;2252.80;;;;;;5109349;28;20072;-53
2021/01/05 01:27:01;;;;;;;15.40;9.30;;;205.60;2252.80;;;;;;5110696;28;20066;-54
2021/01/05 01:29:27;;;;;;;16.65;8.82;;;205.60;2252.80;;;;;;5109918;28;20047;-54
2021/01/05 01:31:56;;;;;;;12.35;8.63;;;205.60;2252.80;;;;;;5109541;28;20149;-52
2021/01/05 01:34:23;;;;;;;;;;;205.60;2252.80;;;;;;5108638;28;20020;-53
2021/01/05 01:36:56;;;;;;;12.90;8.32;;;205.60;2252.80;;;;;;5096298;28;19918;-54
2021/01/05 01:39:22;;;;;;;14.20;8.35;;;205.60;2252.80;;;;;;5092448;28;20024;-53
2021/01/05 01:41:48;;;;;;;13.48;9.13;;;205.60;2252.80;;;;;;5092078;28;20067;-54
2021/01/05 01:44:26;;;;;;;12.93;8.40;;;205.60;2252.80;;;;;;5092615;28;20028;-53
2021/01/05 01:46:56;;;;;;;14.13;9.70;;;205.60;2252.80;;;;;;5092166;28;20043;-53
2021/01/05 01:49:22;;;;;;;14.32;8.95;;;205.60;2252.80;;;;;;5086258;28;20035;-53
2021/01/05 01:51:49;;;;;;;12.65;8.90;;;205.60;2252.80;;;;;;5091733;28;20023;-53
2021/01/05 01:54:38;;;;;;;14.77;10.15;;;205.60;2252.80;;;;;;5092585;28;20023;-53
2021/01/05 01:57:40;;;;;;;13.90;10.27;;;205.50;2252.80;;;;;;5092482;28;20506;-54
2021/01/05 02:00:47;;;;;;;15.85;10.23;;;205.40;2252.80;;;;;;5090350;28;20455;-57
2021/01/05 02:03:50;;;;;;;15.23;10.63;;;205.50;2252.80;;;;;;5088046;28;20028;-54
2021/01/05 02:06:29;;;;;;;17.17;12.10;;;205.40;2252.80;;;;;;5092416;28;20043;-56
2021/01/05 02:09:08;;;;;;;18.13;11.82;;;205.30;2252.80;;;;;;5091055;28;20366;-55
2021/01/05 02:11:46;;;;;;;18.63;12.48;;;205.40;2252.80;;;;;;5096038;28;20025;-53
2021/01/05 02:14:17;;;;;;;21.27;14.63;;;205.40;2252.80;;;;;;5106392;28;20035;-54
2021/01/05 02:16:43;;;;;;;22.55;13.60;;;205.30;2252.80;;;;;;5085325;28;20257;-53
2021/01/05 02:19:26;;;;;;;21.83;14.35;;;205.30;2252.80;;;;;;5111464;28;20051;-54
2021/01/05 02:22:07;;;;;;;20.15;12.93;;;205.40;2252.80;;;;;;5112861;28;20383;-54
2021/01/05 02:25:14;;;;;;;20.45;14.35;;;205.40;2252.80;;;;;;5080036;28;20509;-54
2021/01/05 02:28:04;;;;;;;23.37;14.47;;;205.30;2252.80;;;;;;5111873;28;20024;-54
2021/01/05 02:30:39;;;;;;;22.05;12.82;;;205.40;2252.80;;;;;;5111881;28;20061;-54
2021/01/05 02:33:24;;;;;;;22.88;13.82;;;205.30;2252.80;;;;;;5114793;28;20481;-54
2021/01/05 02:35:53;;;;;;;26.35;15.68;;;205.40;2252.80;;;;;;5116467;28;20469;-54
2021/01/05 02:38:27;;;;;;;28.58;15.93;;;205.30;2252.80;;;;;;5116357;28;20020;-54
2021/01/05 02:40:56;;;;;;;33.10;17.10;;;205.30;2252.80;;;;;;5114427;28;20637;-54
2021/01/05 02:43:27;;;;;;;33.83;17.48;;;205.40;2252.80;;;;;;5095847;28;20074;-53
2021/01/05 02:46:09;;;;;;;32.55;16.30;;;205.30;2252.80;;;;;;5110623;28;20027;-54
2021/01/05 02:48:54;;;;;;;35.22;19.15;;;205.30;2252.80;;;;;;5116004;28;20103;-53
2021/01/05 02:51:37;;;;;;;36.15;19.55;;;205.10;2252.80;;;;;;5116231;28;20011;-54
2021/01/05 02:54:12;;;;;;;40.88;19.85;;;205.00;2252.80;;;;;;5116142;28;20092;-54
2021/01/05 02:56:59;;;;;;;45.75;22.05;;;204.90;2252.80;;;;;;5115907;28;20538;-54
2021/01/05 03:00:07;;;;;;;45.92;22.25;;;205.00;2252.80;;;;;;5116105;28;20042;-53
2021/01/05 03:02:51;;;;;;;46.80;21.45;;;205.00;2252.80;;;;;;5098874;28;20016;-53
2021/01/05 03:05:17;;;;;;;43.35;20.80;;;205.00;2252.80;;;;;;5087536;28;20047;-54
2021/01/05 03:07:44;;;;;;;46.97;20.75;;;205.10;2252.80;;;;;;5115931;28;20431;-54
2021/01/05 03:10:26;;;;;;;51.35;23.30;;;205.10;2252.80;;;;;;5116215;28;20023;-54
2021/01/05 03:13:17;;;;;;;43.25;21.00;;;205.10;2252.80;;;;;;5116089;28;20030;-53
2021/01/05 03:16:02;;;;;;;41.67;23.25;;;205.10;2252.80;;;;;;5084244;28;20016;-54
2021/01/05 03:18:50;;;;;;;55.97;25.38;;;205.10;2252.80;;;;;;5111471;28;20027;-54
2021/01/05 03:21:30;;;;;;;58.60;25.55;;;205.10;2252.80;;;;;;5104516;28;20020;-57
2021/01/05 03:23:58;;;;;;;53.80;25.65;;;204.80;2252.80;;;;;;5095587;28;20032;-54
2021/01/05 03:26:33;;;;;;;54.72;24.75;;;204.90;2252.80;;;;;;5095236;28;20023;-56
2021/01/05 03:29:01;;;;;;;57.22;27.38;;;204.90;2252.80;;;;;;5094922;28;20035;-53
2021/01/05 03:31:36;;;;;;;57.47;26.60;;;204.90;2252.80;;;;;;5094835;28;20040;-59
2021/01/05 03:34:03;;;;;;;59.20;26.67;;;204.90;2252.80;;;;;;5093651;28;20063;-59
2021/01/05 03:36:29;;;;;;;56.28;26.73;;;204.80;2252.80;;;;;;5098171;28;20015;-54
2021/01/05 03:38:55;;;;;;;55.30;25.88;;;204.90;2252.80;;;;;;5102922;28;20485;-56
2021/01/05 03:41:21;;;;;;;58.38;26.23;;;204.90;2252.80;;;;;;5108849;28;20039;-53
2021/01/05 03:43:46;;;;;;;57.20;25.92;;;204.90;2252.80;;;;;;5107141;28;20385;-55
2021/01/05 03:46:13;;;;;;;55.80;24.85;;;204.90;2252.80;;;;;;5115756;28;20024;-54
2021/01/05 03:48:40;;;;;;;58.15;26.00;;;204.90;2252.80;;;;;;5115255;28;20076;-55
2021/01/05 03:51:06;;;;;;;58.17;24.88;;;205.00;2252.80;;;;;;5100553;28;20426;-54
2021/01/05 03:53:31;;;;;;;53.50;27.52;;;205.00;2252.80;;;;;;5115061;28;20107;-54
2021/01/05 03:55:57;;;;;;;59.42;24.17;;;205.00;2252.80;;;;;;5099688;28;20115;-54
2021/01/05 03:58:23;;;;;;;53.28;24.85;;;205.00;2252.80;;;;;;5101489;28;20035;-56
2021/01/05 04:00:49;;;;;;;56.05;26.38;;;204.90;2252.80;;;;;;5114898;28;20461;-55
2021/01/05 04:03:15;;;;;;;62.30;26.10;;;204.90;2252.80;;;;;;5109626;28;20034;-55
2021/01/05 04:05:41;;;;;;;56.63;26.02;;;204.90;2252.80;;;;;;5105280;28;20081;-54
2021/01/05 04:08:07;;;;;;;57.20;25.55;;;204.90;2252.80;;;;;;5100120;28;20032;-54
2021/01/05 04:10:32;;;;;;;62.60;26.25;;;204.80;2252.80;;;;;;5115192;28;20069;-54
2021/01/05 04:12:58;;;;;;;49.88;21.95;;;204.80;2252.80;;;;;;5114491;28;20034;-55
2021/01/05 04:15:27;;;;;;;57.78;25.05;;;180.10;2252.80;;;;;;5114494;28;20103;-54
2021/01/05 04:17:54;;;;;;;52.95;23.75;;;204.80;2252.80;;;;;;5113960;28;20478;-52
2021/01/05 04:20:22;;;;;;;50.53;23.98;;;204.80;2252.80;;;;;;5114403;28;20022;-54
2021/01/05 04:22:47;;;;;;;55.75;24.65;;;204.80;2252.80;;;;;;5098966;28;20024;-54
2021/01/05 04:25:16;;;;;;;47.67;19.95;;;204.80;2252.80;;;;;;5096691;28;20038;-55
2021/01/05 04:27:42;;;;;;;38.90;19.27;;;204.80;2252.80;;;;;;5099577;28;20456;-53
2021/01/05 04:30:16;;;;;;;41.78;20.50;;;204.80;2252.80;;;;;;5109566;28;20412;-53
2021/01/05 04:32:42;;;;;;;40.60;20.23;;;204.80;2252.80;;;;;;5105472;28;20696;-53
2021/01/05 04:35:08;;;;;;;34.72;18.02;;;204.80;2252.80;;;;;;5099768;28;20020;-54
2021/01/05 04:37:33;;;;;;;41.10;19.73;;;204.80;2252.80;;;;;;5113958;28;20367;-53
2021/01/05 04:39:59;;;;;;;42.42;19.92;;;180.10;2252.80;;;;;;5099549;28;20043;-54
2021/01/05 04:42:32;;;;;;;37.17;20.20;;;180.10;2252.80;;;;;;5113808;28;20470;-53
2021/01/05 04:45:22;;;;;;;32.88;16.67;;;180.10;2252.80;;;;;;5113646;28;20473;-56
2021/01/05 04:48:04;;;;;;;34.33;17.70;;;180.10;2252.80;;;;;;5113649;28;20071;-56
2021/01/05 04:50:42;;;;;;;35.35;18.02;;;180.10;2252.80;;;;;;5113884;28;20076;-54
2021/01/05 04:53:22;;;;;;;35.47;18.27;;;179.90;2252.80;;;;;;5113617;28;20028;-54
2021/01/05 04:55:59;;;;;;;35.83;17.38;;;179.90;2252.80;;;;;;5108222;28;20040;-55
2021/01/05 04:58:29;;;;;;;35.47;16.65;;;180.00;2252.80;;;;;;5106093;28;20011;-50
2021/01/05 05:00:55;;;;;;;37.38;18.70;;;180.00;2252.80;;;;;;5113642;28;20115;-53
2021/01/05 05:03:51;;;;;;;32.22;17.17;;;180.00;2252.80;;;;;;5113346;28;20538;-53
2021/01/05 05:06:29;;;;;;;36.95;16.92;;;180.00;2252.80;;;;;;5087430;28;20039;-54
2021/01/05 05:09:07;;;;;;;30.60;17.38;;;180.00;2252.80;;;;;;5113586;28;20127;-53
2021/01/05 05:11:55;;;;;;;28.40;16.35;;;180.00;2252.80;;;;;;5113531;28;20051;-54
2021/01/05 05:14:45;;;;;;;33.53;18.75;;;180.00;2252.80;;;;;;5113066;28;20016;-54
2021/01/05 05:17:42;;;;;;;34.28;19.02;;;180.00;2252.80;;;;;;5113547;28;20359;-53
2021/01/05 05:20:26;;;;;;;29.70;16.20;;;180.00;2252.80;;;;;;5091626;28;20027;-55
2021/01/05 05:23:06;;;;;;;31.42;17.83;;;180.00;2252.80;;;;;;5112791;28;20015;-54
2021/01/05 05:25:42;;;;;;;30.60;17.33;;;180.00;2252.80;;;;;;5113486;28;20031;-54
2021/01/05 05:28:15;;;;;;;34.00;18.52;;;180.00;2252.80;;;;;;5113330;28;20039;-54
2021/01/05 05:30:44;;;;;;;33.08;18.35;;;180.10;2252.80;;;;;;5102013;28;20069;-56
2021/01/05 05:33:40;;;;;;;31.73;18.17;;;180.10;2252.80;;;;;;5091115;28;20060;-57
2021/01/05 05:36:26;;;;;;;33.53;18.63;;;180.10;2252.80;;;;;;5014340;28;20604;-53
2021/01/05 05:39:01;;;;;;;34.50;18.67;;;204.80;2252.80;;;;;;5028066;28;20025;-55
2021/01/05 05:42:04;;;;;;;49.03;20.80;;;204.80;2252.80;;;;;;5016463;28;20025;-53
2021/01/05 05:44:47;;;;;;;49.90;22.90;;;204.80;2252.80;;;;;;4990454;28;20053;-54
2021/01/05 05:47:18;;;;;;;56.15;24.10;;;204.80;2252.80;;;;;;4991005;28;20057;-54
2021/01/05 05:50:05;;;;;;;50.97;24.40;;;180.00;2252.80;;;;;;4990837;28;20424;-54
2021/01/05 05:52:41;;;;;;;57.63;24.10;;;180.10;2252.80;;;;;;4990616;28;20395;-53
2021/01/05 05:55:39;;;;;;;61.67;24.38;;;179.90;2252.80;;;;;;4991013;28;20058;-54
2021/01/05 05:58:06;;;;;;;58.50;25.02;;;179.90;2252.80;;;;;;4977166;28;20058;-56
2021/01/05 06:00:37;;;;;;;54.45;24.60;;;179.90;2252.80;;;;;;4990902;28;20404;-54
2021/01/05 06:03:05;;;;;;;55.85;22.55;;;180.00;2252.80;;;;;;4990427;28;20034;-53
2021/01/05 06:05:34;;;;;;;54.67;25.15;;;180.00;2252.80;;;;;;4990520;28;20374;-54
2021/01/05 06:08:00;;;;;;;55.42;24.05;;;180.00;2252.80;;;;;;4992665;28;20432;-54
2021/01/05 06:10:26;;;;;;;53.05;24.52;;;180.00;2252.80;;;;;;4994868;28;20100;-54
2021/01/05 06:12:53;;;;;;;56.88;24.83;;;180.00;2252.80;;;;;;5033978;28;20060;-56
2021/01/05 06:15:19;;;;;;;55.90;25.65;;;180.00;2252.80;;;;;;5053749;28;20059;-54
2021/01/05 06:17:45;;;;;;;49.83;25.75;;;180.00;2252.80;;;;;;5053802;28;20352;-53
2021/01/05 06:20:11;;;;;;;64.80;30.08;;;180.00;2252.80;;;;;;5056066;28;20032;-56
2021/01/05 06:22:37;;;;;;;53.50;27.75;;;180.10;2252.80;;;;;;5116709;28;20094;-56
2021/01/05 06:25:05;;;;;;;59.95;32.28;;;180.10;2252.80;;;;;;5116877;28;20085;-54
2021/01/05 06:27:30;;;;;;;55.50;29.70;;;180.10;2252.80;;;;;;5116164;28;20028;-54
2021/01/05 06:29:56;;;;;;;53.78;27.10;;;204.80;2252.80;;;;;;5116772;28;20020;-54
2021/01/05 06:32:22;;;;;;;55.83;28.50;;;204.80;2252.80;;;;;;5101941;28;20028;-53
2021/01/05 06:34:48;;;;;;;49.13;26.48;;;204.80;2252.80;;;;;;5116872;28;20110;-53
2021/01/05 06:37:14;;;;;;;49.75;26.05;;;204.80;2252.80;;;;;;5115934;28;20073;-54
2021/01/05 06:39:40;;;;;;;48.95;26.25;;;204.80;2252.80;;;;;;5111138;28;20092;-56
2021/01/05 06:42:06;;;;;;;58.38;28.75;;;204.90;2252.80;;;;;;5107438;28;20023;-54
2021/01/05 06:44:31;;;;;;;57.58;29.25;;;204.90;2252.80;;;;;;5116406;28;20374;-54
2021/01/05 06:46:57;;;;;;;55.53;25.63;;;205.00;2252.80;;;;;;5116154;28;20077;-56
2021/01/05 06:49:26;;;;;;;59.47;29.27;;;205.00;2227.20;;;;;;5115589;28;20034;-53
2021/01/05 06:51:53;;;;;;;52.58;27.02;;;205.00;2227.20;;;;;;5116396;28;20024;-54
2021/01/05 06:54:19;;;;;;;52.67;25.10;;;204.90;2227.20;;;;;;5116252;28;20028;-54
2021/01/05 06:56:50;;;;;;;52.72;26.40;;;205.00;2227.20;;;;;;5116354;28;20081;-55
2021/01/05 06:59:16;;;;;;;49.67;27.10;;;204.90;2201.60;;;;;;5101730;28;20354;-55
2021/01/05 07:01:48;;;;;;;57.95;27.48;;;204.90;2227.20;;;;;;5095489;28;20024;-53
2021/01/05 07:04:13;;;;;;;52.08;27.08;;;204.90;2201.60;;;;;;5095220;28;20040;-54
2021/01/05 07:06:39;;;;;;;52.05;26.42;;;205.00;2201.60;;;;;;5095072;28;20088;-54
2021/01/05 07:09:05;;;;;;;58.35;27.88;;;205.10;2176.00;;;;;;5095586;28;20064;-54
2021/01/05 07:11:30;;;;;;;55.80;28.98;;;205.10;2176.00;;;;;;5095455;28;20117;-55
2021/01/05 07:13:56;;;;;;;59.97;29.27;;;205.10;2176.00;;;;;;5095467;28;20455;-54
2021/01/05 07:16:22;;;;;;;53.50;29.35;;;205.10;2201.60;;;;;;5095058;28;20051;-56
2021/01/05 07:18:47;;;;;;;56.20;29.20;;;205.10;2176.00;;;;;;5093762;28;20056;-54
2021/01/05 07:21:13;;;;;;;59.70;29.77;;;205.20;2201.60;;;;;;5095152;28;20032;-53
2021/01/05 07:23:39;;;;;;;53.60;30.20;;;205.30;2150.40;;;;;;5095134;28;20446;-54
2021/01/05 07:26:04;;;;;;;52.78;29.65;;;205.10;2176.00;;;;;;5095124;28;20458;-56
2021/01/05 07:28:30;;;;;;;56.15;30.67;;;205.20;2176.00;;;;;;5094984;28;20397;-54
2021/01/05 07:30:55;;;;;;;57.25;31.67;;;205.40;2176.00;;;;;;5095232;28;20474;-57
2021/01/05 07:33:21;;;;;;;56.22;29.98;;;205.40;2176.00;;;;;;5094922;28;20036;-54
2021/01/05 07:35:47;;;;;;;68.07;32.30;;;205.30;2150.40;;;;;;5094395;28;20028;-54
2021/01/05 07:38:13;;;;;;;52.58;29.65;;;205.30;2176.00;;;;;;5094809;28;20032;-53
2021/01/05 07:40:39;;;;;;;58.85;31.23;;;205.30;2176.00;;;;;;5094761;28;20055;-55
2021/01/05 07:43:04;;;;;;;54.97;29.73;;;205.40;2150.40;;;;;;5094723;28;20055;-56
2021/01/05 07:45:30;;;;;;;55.47;29.42;;;205.30;2150.40;;;;;;5094477;28;20032;-55
2021/01/05 07:47:56;;;;;;;52.13;30.48;;;205.20;2150.40;;;;;;5095193;28;20104;-54
2021/01/05 07:50:25;;;;;;;52.13;25.55;;;205.10;2150.40;;;;;;5094666;28;20024;-55
2021/01/05 07:52:52;;;;;;;50.58;28.75;;;205.00;2176.00;;;;;;5093977;28;20012;-54
2021/01/05 07:55:21;;;;;;;50.15;28.88;;;205.00;2176.00;;;;;;5094806;28;20028;-54
2021/01/05 07:57:48;;;;;;;49.97;28.70;;;205.00;2176.00;;;;;;5094480;28;20012;-53
2021/01/05 08:00:20;;;;;;;49.95;27.45;;;205.00;2176.00;;;;;;5094354;28;20433;-54
2021/01/05 08:02:46;;;;;;;54.67;31.60;;;204.80;2176.00;;;;;;5094760;28;20035;-53
2021/01/05 08:05:24;;;;;;;53.03;30.27;;;205.00;2176.00;;;;;;5076387;28;20474;-54
2021/01/05 08:07:50;;;;;;;53.22;30.02;;;205.10;2176.00;;;;;;5094196;28;20043;-54
2021/01/05 08:10:20;;;;;;;57.35;29.73;;;205.00;2176.00;;;;;;5094448;28;20466;-53
2021/01/05 08:12:47;;;;;;;59.05;32.90;;;205.10;2176.00;;;;;;5093928;28;20028;-55
2021/01/05 08:15:18;;;;;;;52.50;28.70;;;205.00;2201.60;;;;;;5094460;28;20556;-54
2021/01/05 08:17:44;;;;;;;46.50;28.30;;;205.00;2176.00;;;;;;5094107;28;20119;-56
2021/01/05 08:20:10;;;;;;;51.20;30.67;;;205.00;2176.00;;;;;;5093734;28;20104;-54
2021/01/05 08:22:36;;;;;;;60.60;31.73;;;205.10;2150.40;;;;;;5092641;28;20024;-55
2021/01/05 08:25:03;;;;;;;51.75;29.95;;;205.10;2150.40;;;;;;5094127;28;20047;-54
2021/01/05 08:27:28;;;;;;;59.92;32.50;;;205.20;2150.40;;;;;;5092418;28;20036;-54
2021/01/05 08:29:54;;;;;;;57.78;30.98;;;205.30;2150.40;;;;;;5093416;28;20012;-56
2021/01/05 08:32:23;;;;;;;53.90;31.50;;;205.20;2124.80;;;;;;5093743;28;20089;-54
2021/01/05 08:34:48;;;;;;;55.95;31.98;;;205.20;2124.80;;;;;;5095414;28;20524;-54
2021/01/05 08:37:14;;;;;;;62.55;32.67;;;205.10;2150.40;;;;;;5093757;28;20048;-53
2021/01/05 08:39:41;;;;;;;57.65;31.35;;;205.10;2150.40;;;;;;5093482;28;20390;-55
2021/01/05 08:42:07;;;;;;;60.15;32.80;;;205.30;2124.80;;;;;;5093885;28;20028;-54
2021/01/05 08:44:32;;;;;;;59.45;32.00;;;205.40;2150.40;;;;;;5093676;28;20027;-53
2021/01/05 08:46:59;;;;;;;58.08;34.33;;;205.40;2124.80;;;;;;5093678;28;20039;-53
2021/01/05 08:49:26;;;;;;;56.83;33.00;;;205.30;2124.80;;;;;;5093913;28;20032;-57
2021/01/05 08:51:53;;;;;;;57.65;33.08;;;205.40;2124.80;;;;;;5092886;28;20016;-57
2021/01/05 08:54:19;;;;;;;55.15;30.98;;;205.50;2124.80;;;;;;5093535;28;20063;-54
2021/01/05 08:56:44;;;;;;;56.42;32.15;;;205.60;2073.60;;;;;;5093705;28;20055;-54
2021/01/05 08:59:10;;;;;;;57.75;33.30;;;205.60;2099.20;;;;;;5093611;28;20161;-54
2021/01/05 09:01:36;;;;;;;60.42;32.97;;;205.60;2073.60;;;;;;5103803;28;20028;-55
2021/01/05 09:04:01;;;;;;;56.88;31.85;;;205.60;2073.60;;;;;;5101395;28;20040;-55
2021/01/05 09:06:27;;;;;;;51.88;30.48;;;230.40;2048.00;;;;;;5092854;28;20028;-53
2021/01/05 09:08:54;;;;;;;56.50;32.70;;;205.70;2048.00;;;;;;5093874;28;20036;-54
2021/01/05 09:11:26;;;;;;;57.83;34.17;;;205.60;2073.60;;;;;;5109445;28;20040;-53
2021/01/05 09:13:52;;;;;;;61.28;32.58;;;205.70;2073.60;;;;;;5081409;28;20482;-55
2021/01/05 09:16:23;;;;;;;57.47;33.40;;;205.60;2048.00;;;;;;5093018;28;20529;-53
2021/01/05 09:18:50;;;;;;;56.92;33.50;;;205.60;2073.60;;;;;;5092837;28;20073;-56
2021/01/05 09:21:16;;;;;;;61.85;34.17;;;205.70;2048.00;;;;;;5092816;28;20056;-56
2021/01/05 09:23:43;;;;;;;59.70;32.88;;;205.60;2073.60;;;;;;5103918;28;20027;-56
2021/01/05 09:26:17;;;;;;;57.88;32.65;;;205.60;2073.60;;;;;;5110363;28;20494;-55
2021/01/05 09:28:43;;;;;;;60.22;33.53;;;205.20;2124.80;;;;;;5078579;28;20055;-54
2021/01/05 09:31:09;;;;;;;59.67;36.88;;;205.60;2073.60;;;;;;5097836;28;20043;-54
2021/01/05 09:33:35;;;;;;;61.85;35.78;;;205.70;2073.60;;;;;;5101978;28;20571;-54
2021/01/05 09:36:00;;;;;;;54.17;30.33;;;230.40;2048.00;;;;;;5108951;28;20021;-56
2021/01/05 09:38:26;;;;;;;57.58;32.22;;;230.40;2022.40;;;;;;5103801;28;20028;-54
2021/01/05 09:40:53;;;;;;;60.45;34.47;;;230.50;2022.40;;;;;;5106746;28;20023;-54
2021/01/05 09:43:18;;;;;;;61.13;34.00;;;230.40;2022.40;;;;;;5091956;28;20028;-57
2021/01/05 09:45:45;;;;;;;58.08;32.97;;;230.50;2022.40;;;;;;5092515;28;20374;-56
2021/01/05 09:48:12;;;;;;;62.40;34.95;;;230.50;2022.40;;;;;;5092364;28;20024;-55
2021/01/05 09:50:39;;;;;;;54.83;32.63;;;230.50;1996.80;;;;;;5093204;28;20035;-56
2021/01/05 09:53:06;;;;;;;56.78;30.10;;;230.40;2022.40;;;;;;5108585;28;20465;-58
2021/01/05 09:55:32;;;;;;;60.30;34.10;;;230.40;2022.40;;;;;;5108659;28;20458;-55
2021/01/05 09:57:58;;;;;;;60.67;35.20;;;205.70;2048.00;;;;;;5112092;28;20107;-56
2021/01/05 10:00:24;;;;;;;56.42;30.85;;;205.60;2048.00;;;;;;5110476;28;20077;-55
2021/01/05 10:02:50;;;;;;;58.15;33.90;;;205.60;2048.00;;;;;;5105434;28;20031;-55
2021/01/05 10:05:16;;;;;;;63.50;31.65;;;205.70;2048.00;;;;;;5102777;28;20048;-55
2021/01/05 10:07:43;;;;;;;63.70;35.00;;;205.60;2073.60;;;;;;5095098;28;20531;-55
2021/01/05 10:10:18;;;;;;;59.65;34.03;;;205.30;2099.20;;;;;;5092720;28;20054;-57
2021/01/05 10:12:43;;;;;;;56.78;31.48;;;205.70;2048.00;;;;;;5106013;28;20039;-55
2021/01/05 10:15:10;;;;;;;59.67;32.45;;;230.40;2048.00;;;;;;5103625;28;20137;-57
2021/01/05 10:17:36;;;;;;;59.13;32.55;;;230.40;2022.40;;;;;;5112125;28;20080;-55
2021/01/05 10:20:05;;;;;;;60.47;35.55;;;230.50;2022.40;;;;;;5107300;28;20031;-57
2021/01/05 10:22:30;;;;;;;58.30;35.05;;;230.60;1996.80;;;;;;5110167;28;20556;-56
2021/01/05 10:24:56;;;;;;;59.45;32.95;;;230.70;1996.80;;;;;;5109004;28;20107;-54
2021/01/05 10:27:23;;;;;;;61.10;35.13;;;230.80;1971.20;;;;;;5109804;28;20374;-56
2021/01/05 10:29:50;;;;;;;70.30;37.08;;;230.70;1971.20;;;;;;5110385;28;20019;-55
2021/01/05 10:32:16;;;;;;;59.40;34.22;;;230.80;1971.20;;;;;;5110442;28;20023;-56
2021/01/05 10:34:42;;;;;;;55.88;33.55;;;230.80;1971.20;;;;;;5111235;28;20035;-56
2021/01/05 10:37:08;;;;;;;61.50;34.85;;;230.80;1971.20;;;;;;5110874;28;20032;-55
2021/01/05 10:39:34;;;;;;;63.70;36.25;;;230.80;1971.20;;;;;;5111836;28;20027;-57
2021/01/05 10:42:02;;;;;;;62.40;36.47;;;230.80;1971.20;;;;;;5106875;28;20072;-55
2021/01/05 10:44:28;;;;;;;61.78;36.85;;;230.90;1971.20;;;;;;5109924;28;20526;-55
2021/01/05 10:46:58;;;;;;;58.88;35.92;;;230.80;1945.60;;;;;;5090059;28;20135;-57
2021/01/05 10:49:24;;;;;;;62.45;35.50;;;230.90;1996.80;;;;;;5108223;28;20485;-56
2021/01/05 10:51:52;;;;;;;59.72;36.17;;;231.00;1971.20;;;;;;5097376;28;20031;-56
2021/01/05 10:54:19;;;;;;;65.25;36.72;;;256.00;1920.00;;;;;;5094287;28;20107;-54
2021/01/05 10:56:45;;;;;;;57.83;36.05;;;231.10;1920.00;;;;;;5095464;28;20024;-54
2021/01/05 10:59:14;;;;;;;57.60;36.10;;;231.20;1920.00;;;;;;5077527;28;20036;-60
2021/01/05 11:01:40;;;;;;;55.08;34.13;;;256.10;1868.80;;;;;;5106313;28;20056;-53
2021/01/05 11:04:06;;;;;;;55.88;33.08;;;256.10;1868.80;;;;;;5112392;28;20134;-56
2021/01/05 11:06:32;;;;;;;54.30;33.92;;;256.20;1843.20;;;;;;5095144;28;20087;-56
2021/01/05 11:08:58;;;;;;;58.13;34.10;;;256.30;1843.20;;;;;;5095023;28;20093;-56
2021/01/05 11:11:23;;;;;;;60.38;35.10;;;256.10;1843.20;;;;;;5095477;28;20508;-56
2021/01/05 11:13:49;;;;;;;60.92;36.03;;;231.00;1894.40;;;;;;5095366;28;20016;-55
2021/01/05 11:16:15;;;;;;;60.70;35.85;;;230.90;1920.00;;;;;;5099633;28;20022;-53
2021/01/05 11:18:44;;;;;;;57.72;33.97;;;230.70;1945.60;;;;;;5115552;28;20054;-54
2021/01/05 11:21:12;;;;;;;61.28;36.00;;;230.90;1945.60;;;;;;5115407;28;20064;-54
2021/01/05 11:23:39;;;;;;;64.15;36.70;;;231.10;1894.40;;;;;;5096737;28;20042;-54
2021/01/05 11:26:09;;;;;;;62.15;36.28;;;230.80;1945.60;;;;;;5115490;28;20035;-54
2021/01/05 11:28:35;;;;;;;72.07;39.88;;;230.90;1945.60;;;;;;5111899;28;20031;-56
2021/01/05 11:31:01;;;;;;;64.22;37.67;;;231.10;1920.00;;;;;;5094910;28;20024;-53
2021/01/05 11:33:26;;;;;;;62.03;36.83;;;231.20;1920.00;;;;;;5098691;28;20028;-54
2021/01/05 11:35:52;;;;;;;66.95;39.78;;;231.10;1920.00;;;;;;5109250;28;20035;-54
2021/01/05 11:38:18;;;;;;;63.55;37.70;;;231.20;1920.00;;;;;;5101867;28;20070;-54
2021/01/05 11:40:43;;;;;;;52.22;32.58;;;231.20;1894.40;;;;;;5113746;28;20024;-55
2021/01/05 11:43:09;;;;;;;58.72;36.63;;;231.00;1894.40;;;;;;5115039;28;20012;-54
2021/01/05 11:45:35;;;;;;;53.13;31.65;;;230.60;1971.20;;;;;;5112799;28;20023;-54
2021/01/05 11:48:01;;;;;;;51.80;32.50;;;230.60;1971.20;;;;;;5103023;28;20366;-53
2021/01/05 11:50:26;;;;;;;57.42;32.55;;;230.60;1971.20;;;;;;5115028;28;20011;-54
2021/01/05 11:52:52;;;;;;;57.90;33.88;;;230.70;1945.60;;;;;;5114780;28;20106;-55
2021/01/05 11:55:19;;;;;;;58.03;33.25;;;230.70;1945.60;;;;;;5115220;28;20104;-57
2021/01/05 11:57:44;;;;;;;50.88;32.10;;;230.80;1920.00;;;;;;5094222;28;20024;-54
2021/01/05 12:00:15;;;;;;;58.38;35.90;;;230.70;1945.60;;;;;;5094721;28;20496;-54
2021/01/05 12:02:41;;;;;;;59.17;35.13;;;230.70;1945.60;;;;;;5094335;28;20017;-53
2021/01/05 12:05:07;;;;;;;60.95;33.72;;;230.70;1971.20;;;;;;5093313;28;20387;-55
2021/01/05 12:07:33;;;;;;;55.28;34.65;;;230.80;1945.60;;;;;;5105340;28;20036;-53
2021/01/05 12:09:58;;;;;;;55.92;32.47;;;230.80;1945.60;;;;;;5110580;28;20034;-54
2021/01/05 12:12:24;;;;;;;58.33;35.33;;;230.80;1945.60;;;;;;5113779;28;20026;-55
2021/01/05 12:14:49;;;;;;;58.08;34.15;;;230.90;1945.60;;;;;;5108246;28;20047;-54